sensor_id;sensor_type;location;lat;lon;timestamp;P1;durP1;ratioP1;P2;durP2;ratioP2
41293;SDS011;27037;52.010;4.446;2023-10-31T00:01:36;14.30;;;5.45;;
41293;SDS011;27037;52.010;4.446;2023-10-31T00:04:02;13.98;;;4.43;;
41293;SDS011;27037;52.010;4.446;2023-10-31T00:06:28;8.77;;;4.05;;
41293;SDS011;27037;52.010;4.446;2023-10-31T00:08:53;10.75;;;3.97;;
41293;SDS011;27037;52.010;4.446;2023-10-31T00:11:19;13.48;;;3.90;;
41293;SDS011;27037;52.010;4.446;2023-10-31T00:13:44;12.75;;;3.78;;
41293;SDS011;27037;52.010;4.446;2023-10-31T00:16:10;9.13;;;3.63;;
41293;SDS011;27037;52.010;4.446;2023-10-31T00:18:36;9.50;;;3.80;;
41293;SDS011;27037;52.010;4.446;2023-10-31T00:21:01;12.25;;;3.67;;
41293;SDS011;27037;52.010;4.446;2023-10-31T00:23:27;10.43;;;3.67;;
41293;SDS011;27037;52.010;4.446;2023-10-31T00:25:52;11.88;;;4.47;;
41293;SDS011;27037;52.010;4.446;2023-10-31T00:28:18;10.43;;;4.22;;
41293;SDS011;27037;52.010;4.446;2023-10-31T00:30:44;13.25;;;4.85;;
41293;SDS011;27037;52.010;4.446;2023-10-31T00:33:10;13.52;;;4.80;;
41293;SDS011;27037;52.010;4.446;2023-10-31T00:35:35;13.57;;;5.03;;
41293;SDS011;27037;52.010;4.446;2023-10-31T00:38:01;16.73;;;5.63;;
41293;SDS011;27037;52.010;4.446;2023-10-31T00:40:26;13.05;;;5.35;;
41293;SDS011;27037;52.010;4.446;2023-10-31T00:42:52;22.08;;;6.03;;
41293;SDS011;27037;52.010;4.446;2023-10-31T00:45:18;16.75;;;6.03;;
41293;SDS011;27037;52.010;4.446;2023-10-31T00:47:44;18.88;;;5.93;;
41293;SDS011;27037;52.010;4.446;2023-10-31T00:50:10;13.38;;;5.85;;
41293;SDS011;27037;52.010;4.446;2023-10-31T00:52:35;14.50;;;5.95;;
41293;SDS011;27037;52.010;4.446;2023-10-31T00:55:02;17.13;;;5.60;;
41293;SDS011;27037;52.010;4.446;2023-10-31T00:57:28;14.25;;;5.72;;
41293;SDS011;27037;52.010;4.446;2023-10-31T00:59:54;14.90;;;6.63;;
41293;SDS011;27037;52.010;4.446;2023-10-31T01:02:20;18.92;;;6.38;;
41293;SDS011;27037;52.010;4.446;2023-10-31T01:04:45;14.27;;;6.30;;
41293;SDS011;27037;52.010;4.446;2023-10-31T01:07:11;15.55;;;7.00;;
41293;SDS011;27037;52.010;4.446;2023-10-31T01:09:37;14.00;;;6.95;;
41293;SDS011;27037;52.010;4.446;2023-10-31T01:12:04;15.38;;;7.07;;
41293;SDS011;27037;52.010;4.446;2023-10-31T01:14:30;16.17;;;7.25;;
41293;SDS011;27037;52.010;4.446;2023-10-31T01:16:56;13.52;;;6.40;;
41293;SDS011;27037;52.010;4.446;2023-10-31T01:19:21;14.38;;;6.93;;
41293;SDS011;27037;52.010;4.446;2023-10-31T01:21:47;17.83;;;7.38;;
41293;SDS011;27037;52.010;4.446;2023-10-31T01:24:12;20.38;;;8.48;;
41293;SDS011;27037;52.010;4.446;2023-10-31T01:26:38;13.60;;;8.75;;
41293;SDS011;27037;52.010;4.446;2023-10-31T01:29:03;19.20;;;9.63;;
41293;SDS011;27037;52.010;4.446;2023-10-31T01:31:29;14.70;;;10.07;;
41293;SDS011;27037;52.010;4.446;2023-10-31T01:33:55;16.88;;;9.15;;
41293;SDS011;27037;52.010;4.446;2023-10-31T01:36:25;12.52;;;8.48;;
41293;SDS011;27037;52.010;4.446;2023-10-31T01:38:54;12.48;;;8.45;;
41293;SDS011;27037;52.010;4.446;2023-10-31T01:41:19;13.73;;;8.23;;
41293;SDS011;27037;52.010;4.446;2023-10-31T01:43:45;12.50;;;8.23;;
41293;SDS011;27037;52.010;4.446;2023-10-31T01:46:11;15.35;;;7.10;;
41293;SDS011;27037;52.010;4.446;2023-10-31T01:48:36;13.48;;;5.47;;
41293;SDS011;27037;52.010;4.446;2023-10-31T01:51:03;12.13;;;5.35;;
41293;SDS011;27037;52.010;4.446;2023-10-31T01:53:29;7.35;;;4.18;;
41293;SDS011;27037;52.010;4.446;2023-10-31T01:55:58;11.73;;;4.00;;
41293;SDS011;27037;52.010;4.446;2023-10-31T01:58:28;4.15;;;2.63;;
41293;SDS011;27037;52.010;4.446;2023-10-31T02:00:56;10.10;;;2.65;;
41293;SDS011;27037;52.010;4.446;2023-10-31T02:03:23;7.10;;;2.35;;
41293;SDS011;27037;52.010;4.446;2023-10-31T02:05:50;4.97;;;2.20;;
41293;SDS011;27037;52.010;4.446;2023-10-31T02:08:16;5.30;;;2.20;;
41293;SDS011;27037;52.010;4.446;2023-10-31T02:10:42;4.43;;;1.95;;
41293;SDS011;27037;52.010;4.446;2023-10-31T02:13:11;3.20;;;1.55;;
41293;SDS011;27037;52.010;4.446;2023-10-31T02:15:41;7.05;;;1.70;;
41293;SDS011;27037;52.010;4.446;2023-10-31T02:18:07;7.50;;;1.27;;
41293;SDS011;27037;52.010;4.446;2023-10-31T02:20:33;5.55;;;1.17;;
41293;SDS011;27037;52.010;4.446;2023-10-31T02:22:59;6.18;;;1.33;;
41293;SDS011;27037;52.010;4.446;2023-10-31T02:25:25;6.72;;;1.30;;
41293;SDS011;27037;52.010;4.446;2023-10-31T02:27:51;4.55;;;1.20;;
41293;SDS011;27037;52.010;4.446;2023-10-31T02:30:16;7.43;;;1.48;;
41293;SDS011;27037;52.010;4.446;2023-10-31T02:32:42;5.88;;;1.40;;
41293;SDS011;27037;52.010;4.446;2023-10-31T02:35:08;9.73;;;1.60;;
41293;SDS011;27037;52.010;4.446;2023-10-31T02:37:33;9.77;;;1.50;;
41293;SDS011;27037;52.010;4.446;2023-10-31T02:39:59;6.10;;;1.17;;
41293;SDS011;27037;52.010;4.446;2023-10-31T02:42:25;7.88;;;1.35;;
41293;SDS011;27037;52.010;4.446;2023-10-31T02:44:51;4.75;;;1.17;;
41293;SDS011;27037;52.010;4.446;2023-10-31T02:47:17;7.82;;;0.98;;
41293;SDS011;27037;52.010;4.446;2023-10-31T02:49:42;3.00;;;0.75;;
41293;SDS011;27037;52.010;4.446;2023-10-31T02:52:08;8.27;;;0.90;;
41293;SDS011;27037;52.010;4.446;2023-10-31T02:54:34;5.72;;;0.90;;
41293;SDS011;27037;52.010;4.446;2023-10-31T02:56:59;7.20;;;1.30;;
41293;SDS011;27037;52.010;4.446;2023-10-31T02:59:25;2.58;;;0.95;;
41293;SDS011;27037;52.010;4.446;2023-10-31T03:01:51;3.08;;;0.80;;
41293;SDS011;27037;52.010;4.446;2023-10-31T03:04:17;1.85;;;0.68;;
41293;SDS011;27037;52.010;4.446;2023-10-31T03:06:43;2.22;;;0.75;;
41293;SDS011;27037;52.010;4.446;2023-10-31T03:09:09;3.33;;;0.60;;
41293;SDS011;27037;52.010;4.446;2023-10-31T03:11:34;4.78;;;0.63;;
41293;SDS011;27037;52.010;4.446;2023-10-31T03:14:00;3.80;;;0.80;;
41293;SDS011;27037;52.010;4.446;2023-10-31T03:16:26;6.30;;;0.70;;
41293;SDS011;27037;52.010;4.446;2023-10-31T03:18:52;2.80;;;0.52;;
41293;SDS011;27037;52.010;4.446;2023-10-31T03:21:18;1.63;;;0.60;;
41293;SDS011;27037;52.010;4.446;2023-10-31T03:23:46;5.55;;;0.98;;
41293;SDS011;27037;52.010;4.446;2023-10-31T03:26:14;3.00;;;0.60;;
41293;SDS011;27037;52.010;4.446;2023-10-31T03:28:40;1.48;;;0.57;;
41293;SDS011;27037;52.010;4.446;2023-10-31T03:31:06;2.75;;;0.70;;
41293;SDS011;27037;52.010;4.446;2023-10-31T03:33:31;2.60;;;1.00;;
41293;SDS011;27037;52.010;4.446;2023-10-31T03:35:57;4.80;;;1.20;;
41293;SDS011;27037;52.010;4.446;2023-10-31T03:38:22;5.53;;;1.58;;
41293;SDS011;27037;52.010;4.446;2023-10-31T03:40:48;7.53;;;1.50;;
41293;SDS011;27037;52.010;4.446;2023-10-31T03:43:14;4.03;;;1.50;;
41293;SDS011;27037;52.010;4.446;2023-10-31T03:45:40;8.48;;;2.67;;
41293;SDS011;27037;52.010;4.446;2023-10-31T03:48:05;7.15;;;2.85;;
41293;SDS011;27037;52.010;4.446;2023-10-31T03:50:31;8.40;;;3.30;;
41293;SDS011;27037;52.010;4.446;2023-10-31T03:52:56;6.97;;;3.80;;
41293;SDS011;27037;52.010;4.446;2023-10-31T03:55:22;9.48;;;3.88;;
41293;SDS011;27037;52.010;4.446;2023-10-31T03:57:48;9.73;;;4.97;;
41293;SDS011;27037;52.010;4.446;2023-10-31T04:00:13;10.00;;;4.72;;
41293;SDS011;27037;52.010;4.446;2023-10-31T04:02:39;8.23;;;4.85;;
41293;SDS011;27037;52.010;4.446;2023-10-31T04:05:06;10.80;;;5.22;;
41293;SDS011;27037;52.010;4.446;2023-10-31T04:07:32;9.93;;;5.32;;
41293;SDS011;27037;52.010;4.446;2023-10-31T04:09:57;9.88;;;5.13;;
41293;SDS011;27037;52.010;4.446;2023-10-31T04:12:23;8.80;;;4.32;;
41293;SDS011;27037;52.010;4.446;2023-10-31T04:14:48;7.40;;;3.92;;
41293;SDS011;27037;52.010;4.446;2023-10-31T04:17:14;8.88;;;3.60;;
41293;SDS011;27037;52.010;4.446;2023-10-31T04:19:39;10.93;;;3.20;;
41293;SDS011;27037;52.010;4.446;2023-10-31T04:22:05;6.72;;;2.05;;
41293;SDS011;27037;52.010;4.446;2023-10-31T04:24:31;7.10;;;2.20;;
41293;SDS011;27037;52.010;4.446;2023-10-31T04:26:56;6.80;;;1.98;;
41293;SDS011;27037;52.010;4.446;2023-10-31T04:29:22;5.20;;;1.92;;
41293;SDS011;27037;52.010;4.446;2023-10-31T04:31:48;5.38;;;1.52;;
41293;SDS011;27037;52.010;4.446;2023-10-31T04:34:13;5.78;;;1.10;;
41293;SDS011;27037;52.010;4.446;2023-10-31T04:36:39;4.82;;;1.05;;
41293;SDS011;27037;52.010;4.446;2023-10-31T04:39:05;4.10;;;0.88;;
41293;SDS011;27037;52.010;4.446;2023-10-31T04:41:31;1.60;;;0.60;;
41293;SDS011;27037;52.010;4.446;2023-10-31T04:43:56;6.72;;;0.90;;
41293;SDS011;27037;52.010;4.446;2023-10-31T04:46:22;5.28;;;0.85;;
41293;SDS011;27037;52.010;4.446;2023-10-31T04:48:51;6.63;;;0.98;;
41293;SDS011;27037;52.010;4.446;2023-10-31T04:51:18;2.70;;;0.65;;
41293;SDS011;27037;52.010;4.446;2023-10-31T04:53:43;4.75;;;0.90;;
41293;SDS011;27037;52.010;4.446;2023-10-31T04:56:12;5.88;;;0.80;;
41293;SDS011;27037;52.010;4.446;2023-10-31T04:58:39;6.50;;;0.80;;
41293;SDS011;27037;52.010;4.446;2023-10-31T05:01:08;7.57;;;0.75;;
41293;SDS011;27037;52.010;4.446;2023-10-31T05:03:37;11.13;;;0.88;;
41293;SDS011;27037;52.010;4.446;2023-10-31T05:06:04;6.15;;;0.80;;
41293;SDS011;27037;52.010;4.446;2023-10-31T05:08:30;2.97;;;0.60;;
41293;SDS011;27037;52.010;4.446;2023-10-31T05:10:57;8.38;;;1.00;;
41293;SDS011;27037;52.010;4.446;2023-10-31T05:13:23;7.03;;;0.90;;
41293;SDS011;27037;52.010;4.446;2023-10-31T05:15:49;8.05;;;0.90;;
41293;SDS011;27037;52.010;4.446;2023-10-31T05:18:15;5.03;;;0.90;;
41293;SDS011;27037;52.010;4.446;2023-10-31T05:20:40;4.90;;;1.00;;
41293;SDS011;27037;52.010;4.446;2023-10-31T05:23:06;5.93;;;1.08;;
41293;SDS011;27037;52.010;4.446;2023-10-31T05:25:32;5.10;;;0.85;;
41293;SDS011;27037;52.010;4.446;2023-10-31T05:27:57;1.40;;;0.70;;
41293;SDS011;27037;52.010;4.446;2023-10-31T05:30:24;5.65;;;1.05;;
41293;SDS011;27037;52.010;4.446;2023-10-31T05:32:50;5.32;;;1.10;;
41293;SDS011;27037;52.010;4.446;2023-10-31T05:35:17;3.53;;;1.33;;
41293;SDS011;27037;52.010;4.446;2023-10-31T05:37:45;4.38;;;1.00;;
41293;SDS011;27037;52.010;4.446;2023-10-31T05:40:11;7.03;;;1.20;;
41293;SDS011;27037;52.010;4.446;2023-10-31T05:42:37;3.97;;;1.33;;
41293;SDS011;27037;52.010;4.446;2023-10-31T05:45:03;7.13;;;1.10;;
41293;SDS011;27037;52.010;4.446;2023-10-31T05:47:29;7.60;;;1.30;;
41293;SDS011;27037;52.010;4.446;2023-10-31T05:49:55;10.93;;;1.10;;
41293;SDS011;27037;52.010;4.446;2023-10-31T05:52:21;3.85;;;1.05;;
41293;SDS011;27037;52.010;4.446;2023-10-31T05:54:46;2.45;;;1.00;;
41293;SDS011;27037;52.010;4.446;2023-10-31T05:57:12;3.78;;;0.77;;
41293;SDS011;27037;52.010;4.446;2023-10-31T05:59:37;6.63;;;0.82;;
41293;SDS011;27037;52.010;4.446;2023-10-31T06:02:03;6.20;;;1.35;;
41293;SDS011;27037;52.010;4.446;2023-10-31T06:04:29;3.63;;;1.38;;
41293;SDS011;27037;52.010;4.446;2023-10-31T06:06:55;4.68;;;1.50;;
41293;SDS011;27037;52.010;4.446;2023-10-31T06:09:20;5.28;;;1.80;;
41293;SDS011;27037;52.010;4.446;2023-10-31T06:11:46;10.02;;;2.35;;
41293;SDS011;27037;52.010;4.446;2023-10-31T06:14:12;7.03;;;2.30;;
41293;SDS011;27037;52.010;4.446;2023-10-31T06:16:41;10.50;;;3.03;;
41293;SDS011;27037;52.010;4.446;2023-10-31T06:19:07;10.05;;;4.43;;
41293;SDS011;27037;52.010;4.446;2023-10-31T06:21:33;12.95;;;5.85;;
41293;SDS011;27037;52.010;4.446;2023-10-31T06:23:58;17.45;;;7.35;;
41293;SDS011;27037;52.010;4.446;2023-10-31T06:26:24;22.67;;;9.40;;
41293;SDS011;27037;52.010;4.446;2023-10-31T06:28:49;24.23;;;10.18;;
41293;SDS011;27037;52.010;4.446;2023-10-31T06:31:15;21.00;;;10.32;;
41293;SDS011;27037;52.010;4.446;2023-10-31T06:33:41;25.83;;;11.00;;
41293;SDS011;27037;52.010;4.446;2023-10-31T06:36:06;24.05;;;10.60;;
41293;SDS011;27037;52.010;4.446;2023-10-31T06:38:33;21.17;;;11.65;;
41293;SDS011;27037;52.010;4.446;2023-10-31T06:40:58;27.00;;;11.23;;
41293;SDS011;27037;52.010;4.446;2023-10-31T06:43:24;25.58;;;11.00;;
41293;SDS011;27037;52.010;4.446;2023-10-31T06:45:50;22.10;;;11.15;;
41293;SDS011;27037;52.010;4.446;2023-10-31T06:48:15;23.73;;;11.32;;
41293;SDS011;27037;52.010;4.446;2023-10-31T06:50:41;20.30;;;9.80;;
41293;SDS011;27037;52.010;4.446;2023-10-31T06:53:06;17.02;;;8.07;;
41293;SDS011;27037;52.010;4.446;2023-10-31T06:55:32;16.30;;;7.68;;
41293;SDS011;27037;52.010;4.446;2023-10-31T06:57:58;16.98;;;6.90;;
41293;SDS011;27037;52.010;4.446;2023-10-31T07:00:23;13.82;;;6.22;;
41293;SDS011;27037;52.010;4.446;2023-10-31T07:02:49;11.05;;;5.25;;
41293;SDS011;27037;52.010;4.446;2023-10-31T07:05:14;14.00;;;4.88;;
41293;SDS011;27037;52.010;4.446;2023-10-31T07:07:41;14.77;;;4.55;;
41293;SDS011;27037;52.010;4.446;2023-10-31T07:10:06;11.98;;;4.57;;
41293;SDS011;27037;52.010;4.446;2023-10-31T07:12:32;12.23;;;4.28;;
41293;SDS011;27037;52.010;4.446;2023-10-31T07:14:58;13.25;;;4.22;;
41293;SDS011;27037;52.010;4.446;2023-10-31T07:17:24;10.65;;;4.47;;
41293;SDS011;27037;52.010;4.446;2023-10-31T07:19:50;14.60;;;4.38;;
41293;SDS011;27037;52.010;4.446;2023-10-31T07:22:16;14.20;;;5.55;;
41293;SDS011;27037;52.010;4.446;2023-10-31T07:24:42;11.98;;;5.70;;
41293;SDS011;27037;52.010;4.446;2023-10-31T07:27:08;15.25;;;6.90;;
41293;SDS011;27037;52.010;4.446;2023-10-31T07:29:34;18.10;;;7.60;;
41293;SDS011;27037;52.010;4.446;2023-10-31T07:31:59;23.50;;;8.77;;
41293;SDS011;27037;52.010;4.446;2023-10-31T07:34:26;24.17;;;9.25;;
41293;SDS011;27037;52.010;4.446;2023-10-31T07:36:54;25.25;;;9.60;;
41293;SDS011;27037;52.010;4.446;2023-10-31T07:39:19;23.10;;;9.82;;
41293;SDS011;27037;52.010;4.446;2023-10-31T07:41:45;23.15;;;9.63;;
41293;SDS011;27037;52.010;4.446;2023-10-31T07:44:10;27.08;;;9.73;;
41293;SDS011;27037;52.010;4.446;2023-10-31T07:46:36;23.60;;;10.13;;
41293;SDS011;27037;52.010;4.446;2023-10-31T07:49:02;20.60;;;10.20;;
41293;SDS011;27037;52.010;4.446;2023-10-31T07:51:27;23.23;;;9.90;;
41293;SDS011;27037;52.010;4.446;2023-10-31T07:53:53;22.48;;;9.75;;
41293;SDS011;27037;52.010;4.446;2023-10-31T07:56:18;18.60;;;8.75;;
41293;SDS011;27037;52.010;4.446;2023-10-31T07:58:48;19.65;;;8.43;;
41293;SDS011;27037;52.010;4.446;2023-10-31T08:01:14;24.55;;;9.07;;
41293;SDS011;27037;52.010;4.446;2023-10-31T08:03:41;17.95;;;8.32;;
41293;SDS011;27037;52.010;4.446;2023-10-31T08:06:07;20.60;;;8.82;;
41293;SDS011;27037;52.010;4.446;2023-10-31T08:08:33;22.35;;;9.02;;
41293;SDS011;27037;52.010;4.446;2023-10-31T08:10:59;19.30;;;9.05;;
41293;SDS011;27037;52.010;4.446;2023-10-31T08:13:25;20.67;;;9.20;;
41293;SDS011;27037;52.010;4.446;2023-10-31T08:15:50;23.98;;;9.77;;
41293;SDS011;27037;52.010;4.446;2023-10-31T08:18:16;31.55;;;10.60;;
41293;SDS011;27037;52.010;4.446;2023-10-31T08:20:41;30.27;;;10.65;;
41293;SDS011;27037;52.010;4.446;2023-10-31T08:23:08;23.77;;;10.23;;
41293;SDS011;27037;52.010;4.446;2023-10-31T08:25:34;26.40;;;11.65;;
41293;SDS011;27037;52.010;4.446;2023-10-31T08:27:59;33.72;;;12.13;;
41293;SDS011;27037;52.010;4.446;2023-10-31T08:30:25;31.83;;;12.48;;
41293;SDS011;27037;52.010;4.446;2023-10-31T08:32:51;27.83;;;11.88;;
41293;SDS011;27037;52.010;4.446;2023-10-31T08:35:16;29.65;;;12.38;;
41293;SDS011;27037;52.010;4.446;2023-10-31T08:37:42;29.95;;;12.63;;
41293;SDS011;27037;52.010;4.446;2023-10-31T08:40:07;27.45;;;12.73;;
41293;SDS011;27037;52.010;4.446;2023-10-31T08:42:33;31.35;;;11.40;;
41293;SDS011;27037;52.010;4.446;2023-10-31T08:44:59;26.92;;;11.30;;
41293;SDS011;27037;52.010;4.446;2023-10-31T08:47:24;28.17;;;10.85;;
41293;SDS011;27037;52.010;4.446;2023-10-31T08:49:50;29.52;;;10.73;;
41293;SDS011;27037;52.010;4.446;2023-10-31T08:52:16;31.17;;;10.43;;
41293;SDS011;27037;52.010;4.446;2023-10-31T08:54:42;22.85;;;8.88;;
41293;SDS011;27037;52.010;4.446;2023-10-31T08:57:08;19.45;;;7.57;;
41293;SDS011;27037;52.010;4.446;2023-10-31T08:59:34;21.63;;;7.20;;
41293;SDS011;27037;52.010;4.446;2023-10-31T09:02:00;23.27;;;6.75;;
41293;SDS011;27037;52.010;4.446;2023-10-31T09:04:26;16.48;;;6.18;;
41293;SDS011;27037;52.010;4.446;2023-10-31T09:06:52;14.82;;;5.60;;
41293;SDS011;27037;52.010;4.446;2023-10-31T09:09:17;12.10;;;4.95;;
41293;SDS011;27037;52.010;4.446;2023-10-31T09:11:43;11.27;;;4.18;;
41293;SDS011;27037;52.010;4.446;2023-10-31T09:14:09;12.23;;;3.55;;
41293;SDS011;27037;52.010;4.446;2023-10-31T09:16:34;15.48;;;3.28;;
41293;SDS011;27037;52.010;4.446;2023-10-31T09:19:00;12.98;;;3.30;;
41293;SDS011;27037;52.010;4.446;2023-10-31T09:21:25;15.43;;;3.03;;
41293;SDS011;27037;52.010;4.446;2023-10-31T09:23:51;11.38;;;3.03;;
41293;SDS011;27037;52.010;4.446;2023-10-31T09:26:17;11.50;;;2.83;;
41293;SDS011;27037;52.010;4.446;2023-10-31T09:28:43;12.05;;;2.75;;
41293;SDS011;27037;52.010;4.446;2023-10-31T09:31:14;13.40;;;2.88;;
41293;SDS011;27037;52.010;4.446;2023-10-31T09:33:44;15.57;;;2.90;;
41293;SDS011;27037;52.010;4.446;2023-10-31T09:36:13;11.18;;;2.95;;
41293;SDS011;27037;52.010;4.446;2023-10-31T09:38:39;15.50;;;3.15;;
41293;SDS011;27037;52.010;4.446;2023-10-31T09:41:05;17.58;;;3.90;;
41293;SDS011;27037;52.010;4.446;2023-10-31T09:43:31;13.38;;;3.08;;
41293;SDS011;27037;52.010;4.446;2023-10-31T09:45:57;15.45;;;3.25;;
41293;SDS011;27037;52.010;4.446;2023-10-31T09:48:23;15.05;;;3.70;;
41293;SDS011;27037;52.010;4.446;2023-10-31T09:50:49;16.42;;;3.50;;
41293;SDS011;27037;52.010;4.446;2023-10-31T09:53:15;19.52;;;4.03;;
41293;SDS011;27037;52.010;4.446;2023-10-31T09:55:42;15.50;;;3.58;;
41293;SDS011;27037;52.010;4.446;2023-10-31T09:58:08;18.27;;;3.90;;
41293;SDS011;27037;52.010;4.446;2023-10-31T10:00:33;22.67;;;4.57;;
41293;SDS011;27037;52.010;4.446;2023-10-31T10:03:01;22.17;;;5.55;;
41293;SDS011;27037;52.010;4.446;2023-10-31T10:05:28;18.63;;;6.05;;
41293;SDS011;27037;52.010;4.446;2023-10-31T10:07:56;23.92;;;7.47;;
41293;SDS011;27037;52.010;4.446;2023-10-31T10:10:21;22.05;;;7.25;;
41293;SDS011;27037;52.010;4.446;2023-10-31T10:12:47;24.50;;;7.85;;
41293;SDS011;27037;52.010;4.446;2023-10-31T10:15:13;22.10;;;7.88;;
41293;SDS011;27037;52.010;4.446;2023-10-31T10:17:38;24.15;;;7.47;;
41293;SDS011;27037;52.010;4.446;2023-10-31T10:20:08;29.08;;;7.20;;
41293;SDS011;27037;52.010;4.446;2023-10-31T10:22:38;27.30;;;7.22;;
41293;SDS011;27037;52.010;4.446;2023-10-31T10:25:08;21.00;;;6.60;;
41293;SDS011;27037;52.010;4.446;2023-10-31T10:27:36;22.23;;;6.25;;
41293;SDS011;27037;52.010;4.446;2023-10-31T10:30:03;17.83;;;6.93;;
41293;SDS011;27037;52.010;4.446;2023-10-31T10:32:29;23.42;;;6.63;;
41293;SDS011;27037;52.010;4.446;2023-10-31T10:34:55;21.33;;;6.15;;
41293;SDS011;27037;52.010;4.446;2023-10-31T10:37:20;17.00;;;5.97;;
41293;SDS011;27037;52.010;4.446;2023-10-31T10:39:47;13.38;;;5.70;;
41293;SDS011;27037;52.010;4.446;2023-10-31T10:42:15;23.02;;;5.93;;
41293;SDS011;27037;52.010;4.446;2023-10-31T10:44:43;19.27;;;5.50;;
41293;SDS011;27037;52.010;4.446;2023-10-31T10:47:10;15.38;;;5.00;;
41293;SDS011;27037;52.010;4.446;2023-10-31T10:49:37;16.50;;;4.95;;
41293;SDS011;27037;52.010;4.446;2023-10-31T10:54:49;16.65;;;5.20;;
41293;SDS011;27037;52.010;4.446;2023-10-31T11:00:02;22.52;;;5.50;;
41293;SDS011;27037;52.010;4.446;2023-10-31T11:02:29;14.60;;;5.30;;
41293;SDS011;27037;52.010;4.446;2023-10-31T11:04:55;18.75;;;5.13;;
41293;SDS011;27037;52.010;4.446;2023-10-31T11:07:22;23.75;;;10.63;;
41293;SDS011;27037;52.010;4.446;2023-10-31T11:09:49;36.28;;;23.05;;
41293;SDS011;27037;52.010;4.446;2023-10-31T11:12:15;41.70;;;27.13;;
41293;SDS011;27037;52.010;4.446;2023-10-31T11:14:41;50.78;;;28.38;;
41293;SDS011;27037;52.010;4.446;2023-10-31T11:20:08;46.65;;;27.17;;
41293;SDS011;27037;52.010;4.446;2023-10-31T11:22:42;41.60;;;25.30;;
41293;SDS011;27037;52.010;4.446;2023-10-31T11:25:13;45.65;;;25.27;;
41293;SDS011;27037;52.010;4.446;2023-10-31T11:27:45;41.78;;;23.77;;
41293;SDS011;27037;52.010;4.446;2023-10-31T11:30:29;39.53;;;23.00;;
41293;SDS011;27037;52.010;4.446;2023-10-31T11:32:59;36.10;;;22.13;;
41293;SDS011;27037;52.010;4.446;2023-10-31T11:35:26;37.15;;;22.13;;
41293;SDS011;27037;52.010;4.446;2023-10-31T11:38:02;41.60;;;27.67;;
41293;SDS011;27037;52.010;4.446;2023-10-31T11:40:37;41.33;;;24.65;;
41293;SDS011;27037;52.010;4.446;2023-10-31T11:43:14;50.22;;;28.85;;
41293;SDS011;27037;52.010;4.446;2023-10-31T11:45:41;40.72;;;24.33;;
41293;SDS011;27037;52.010;4.446;2023-10-31T11:48:10;44.63;;;24.35;;
41293;SDS011;27037;52.010;4.446;2023-10-31T11:50:36;32.70;;;20.92;;
41293;SDS011;27037;52.010;4.446;2023-10-31T11:55:32;38.42;;;24.45;;
41293;SDS011;27037;52.010;4.446;2023-10-31T11:58:11;35.65;;;22.17;;
41293;SDS011;27037;52.010;4.446;2023-10-31T12:00:46;31.08;;;20.90;;
41293;SDS011;27037;52.010;4.446;2023-10-31T12:03:15;37.55;;;27.58;;
41293;SDS011;27037;52.010;4.446;2023-10-31T12:05:50;34.22;;;24.85;;
41293;SDS011;27037;52.010;4.446;2023-10-31T12:11:08;42.80;;;26.33;;
41293;SDS011;27037;52.010;4.446;2023-10-31T12:13:35;38.92;;;21.50;;
41293;SDS011;27037;52.010;4.446;2023-10-31T12:16:03;38.28;;;23.50;;
41293;SDS011;27037;52.010;4.446;2023-10-31T12:18:30;42.03;;;23.75;;
41293;SDS011;27037;52.010;4.446;2023-10-31T12:20:56;43.80;;;25.13;;
41293;SDS011;27037;52.010;4.446;2023-10-31T12:23:22;40.83;;;24.50;;
41293;SDS011;27037;52.010;4.446;2023-10-31T12:25:48;43.47;;;24.88;;
41293;SDS011;27037;52.010;4.446;2023-10-31T12:28:17;44.30;;;24.42;;
41293;SDS011;27037;52.010;4.446;2023-10-31T12:30:47;43.47;;;24.25;;
41293;SDS011;27037;52.010;4.446;2023-10-31T12:33:14;40.03;;;24.15;;
41293;SDS011;27037;52.010;4.446;2023-10-31T12:35:41;43.88;;;25.95;;
41293;SDS011;27037;52.010;4.446;2023-10-31T12:38:10;47.33;;;25.90;;
41293;SDS011;27037;52.010;4.446;2023-10-31T12:40:37;42.35;;;25.05;;
41293;SDS011;27037;52.010;4.446;2023-10-31T12:43:03;48.05;;;27.30;;
41293;SDS011;27037;52.010;4.446;2023-10-31T12:45:28;45.85;;;26.55;;
41293;SDS011;27037;52.010;4.446;2023-10-31T12:48:01;43.47;;;25.75;;
41293;SDS011;27037;52.010;4.446;2023-10-31T12:50:27;40.60;;;25.15;;
41293;SDS011;27037;52.010;4.446;2023-10-31T12:52:53;42.42;;;25.83;;
41293;SDS011;27037;52.010;4.446;2023-10-31T12:55:21;41.42;;;25.52;;
41293;SDS011;27037;52.010;4.446;2023-10-31T12:57:48;36.45;;;24.23;;
41293;SDS011;27037;52.010;4.446;2023-10-31T13:00:14;40.42;;;25.23;;
41293;SDS011;27037;52.010;4.446;2023-10-31T13:02:42;38.40;;;25.77;;
41293;SDS011;27037;52.010;4.446;2023-10-31T13:05:08;41.35;;;26.85;;
41293;SDS011;27037;52.010;4.446;2023-10-31T13:07:38;40.70;;;27.38;;
41293;SDS011;27037;52.010;4.446;2023-10-31T13:10:05;40.92;;;26.75;;
41293;SDS011;27037;52.010;4.446;2023-10-31T13:12:34;43.15;;;26.88;;
41293;SDS011;27037;52.010;4.446;2023-10-31T13:15:00;39.50;;;27.60;;
41293;SDS011;27037;52.010;4.446;2023-10-31T13:17:26;36.38;;;25.52;;
41293;SDS011;27037;52.010;4.446;2023-10-31T13:19:52;40.80;;;28.13;;
41293;SDS011;27037;52.010;4.446;2023-10-31T13:22:18;44.92;;;28.95;;
41293;SDS011;27037;52.010;4.446;2023-10-31T13:24:44;43.90;;;27.42;;
41293;SDS011;27037;52.010;4.446;2023-10-31T13:27:10;34.28;;;24.98;;
41293;SDS011;27037;52.010;4.446;2023-10-31T13:29:41;33.35;;;23.00;;
41293;SDS011;27037;52.010;4.446;2023-10-31T13:32:06;29.58;;;21.27;;
41293;SDS011;27037;52.010;4.446;2023-10-31T13:34:33;36.53;;;23.75;;
41293;SDS011;27037;52.010;4.446;2023-10-31T13:36:59;33.70;;;23.38;;
41293;SDS011;27037;52.010;4.446;2023-10-31T13:39:24;37.25;;;22.40;;
41293;SDS011;27037;52.010;4.446;2023-10-31T13:41:50;36.10;;;22.88;;
41293;SDS011;27037;52.010;4.446;2023-10-31T13:44:15;39.88;;;24.55;;
41293;SDS011;27037;52.010;4.446;2023-10-31T13:46:41;39.70;;;23.98;;
41293;SDS011;27037;52.010;4.446;2023-10-31T13:49:07;40.15;;;24.90;;
41293;SDS011;27037;52.010;4.446;2023-10-31T13:51:34;43.13;;;26.02;;
41293;SDS011;27037;52.010;4.446;2023-10-31T13:53:59;57.53;;;33.83;;
41293;SDS011;27037;52.010;4.446;2023-10-31T13:56:25;59.13;;;36.28;;
41293;SDS011;27037;52.010;4.446;2023-10-31T13:58:50;57.20;;;36.53;;
41293;SDS011;27037;52.010;4.446;2023-10-31T14:01:16;57.15;;;37.17;;
41293;SDS011;27037;52.010;4.446;2023-10-31T14:03:42;55.70;;;37.70;;
41293;SDS011;27037;52.010;4.446;2023-10-31T14:06:08;54.97;;;36.85;;
41293;SDS011;27037;52.010;4.446;2023-10-31T14:08:34;54.08;;;34.90;;
41293;SDS011;27037;52.010;4.446;2023-10-31T14:10:59;50.65;;;35.15;;
41293;SDS011;27037;52.010;4.446;2023-10-31T14:13:27;52.20;;;33.80;;
41293;SDS011;27037;52.010;4.446;2023-10-31T14:15:53;49.03;;;32.05;;
41293;SDS011;27037;52.010;4.446;2023-10-31T14:18:18;44.97;;;31.92;;
41293;SDS011;27037;52.010;4.446;2023-10-31T14:20:44;54.40;;;34.05;;
41293;SDS011;27037;52.010;4.446;2023-10-31T14:23:10;47.70;;;31.95;;
41293;SDS011;27037;52.010;4.446;2023-10-31T14:25:35;52.80;;;32.78;;
41293;SDS011;27037;52.010;4.446;2023-10-31T14:28:03;50.08;;;34.65;;
41293;SDS011;27037;52.010;4.446;2023-10-31T14:30:29;52.17;;;34.63;;
41293;SDS011;27037;52.010;4.446;2023-10-31T14:32:54;50.55;;;32.17;;
41293;SDS011;27037;52.010;4.446;2023-10-31T14:35:20;48.40;;;31.02;;
41293;SDS011;27037;52.010;4.446;2023-10-31T14:37:46;44.03;;;28.50;;
41293;SDS011;27037;52.010;4.446;2023-10-31T14:40:11;42.08;;;28.05;;
41293;SDS011;27037;52.010;4.446;2023-10-31T14:42:37;38.22;;;25.20;;